Portada
METAR-TAF:

METAR-TAF

Aeropuertos :

Kiel, Alemania

latitud: 54-23N, longitud: 010-10E, altitud: 31 m

Observación

El informe se hizo hace 28 minutos, a las 11:20 UTC
Viento 5 kt del este
Temperatura 18°C
Humedad 49%
Presión 1024 hPa
Visibilidad 10 km o más
sin nubes por debajo de 1500 m y sin presencia de cumulonimbus.

METAR: EDHK 191120Z 10005KT CAVOK 18/07 Q1024

Hora: 13:48 (11:48 UTC)

Pronóstico

El informe se hizo hace 48 minutos, a las 11:00 UTC
Pronóstico válido del 19 a las 12 UTC al 19 a las 19 UTC
Viento 6 kt del sureste
Visibilidad 10 km o más
sin nubes por debajo de 1500 m y sin presencia de cumulonimbus.
Evolucionando progresivamente
del 19 a las 12 UTC al 19 a las 15 UTC
Viento 6 kt del este-noreste

TAF: EDHK 191100Z 1912/1919 13006KT CAVOK BECMG 1912/1915 07006KT

Observaciones y pronósticos meteorológicos de más de 4000 aeropuertos (mensajes METAR y TAF).

Los puntos amarillos y rojos representan las estaciones disponibles.

Ponga el ratón en el punto deseado para ver el nombre de la estación.

Haga clic para ver las observaciones y los pronósticos meteorológicos.

Para cambiar el mapa : haga clic en los botones verdes con una cruz de color negro para hacer un zoom, en el botón verde con un guión para alejar o en las flechas verdes para mapas adyacentes.


METAR-TAF: